createdAt,value
2022-09-20T00:01:21.683Z,5.07
2022-09-20T00:03:51.355Z,4.53
2022-09-20T00:06:20.480Z,4.33
2022-09-20T00:08:49.252Z,4.60
2022-09-20T00:11:20.365Z,4.37
2022-09-20T00:13:50.561Z,4.90
2022-09-20T00:16:21.491Z,4.23
2022-09-20T00:18:50.734Z,4.73
2022-09-20T00:21:19.824Z,4.33
2022-09-20T00:23:48.464Z,4.83
2022-09-20T00:26:17.480Z,5.03
2022-09-20T00:28:47.041Z,4.73
2022-09-20T00:31:16.817Z,4.13
2022-09-20T00:34:04.023Z,4.53
2022-09-20T00:36:32.502Z,4.20
2022-09-20T00:39:01.994Z,4.17
2022-09-20T00:41:30.659Z,4.57
2022-09-20T00:43:59.024Z,4.37
2022-09-20T00:46:29.807Z,4.77
2022-09-20T00:49:04.662Z,4.60
2022-09-20T00:51:35.929Z,4.43
2022-09-20T00:54:06.406Z,4.60
2022-09-20T00:56:36.227Z,4.53
2022-09-20T00:59:11.760Z,4.77
2022-09-20T01:01:39.898Z,4.17
2022-09-20T01:04:09.820Z,4.43
2022-09-20T01:06:38.344Z,4.47
2022-09-20T01:09:08.035Z,4.27
2022-09-20T01:11:37.491Z,4.23
2022-09-20T01:14:06.147Z,3.87
2022-09-20T01:16:35.772Z,4.53
2022-09-20T01:19:06.805Z,4.90
2022-09-20T01:21:36.555Z,4.43
2022-09-20T01:24:07.225Z,4.17
2022-09-20T01:26:50.387Z,4.00
2022-09-20T01:29:27.839Z,5.20
2022-09-20T01:31:57.168Z,4.43
2022-09-20T01:34:29.063Z,4.70
2022-09-20T01:37:01.504Z,4.40
2022-09-20T01:39:36.693Z,3.90
2022-09-20T01:42:07.846Z,3.90
2022-09-20T01:44:40.250Z,4.67
2022-09-20T01:47:13.061Z,3.67
2022-09-20T01:49:47.100Z,4.47
2022-09-20T01:52:35.410Z,5.83
2022-09-20T01:55:24.993Z,4.40
2022-09-20T01:58:21.531Z,4.20
2022-09-20T02:01:00.603Z,4.33
2022-09-20T02:03:50.075Z,3.43
2022-09-20T02:06:36.395Z,4.47
2022-09-20T02:09:22.667Z,4.13
2022-09-20T02:12:15.076Z,3.83
2022-09-20T02:14:48.779Z,4.87
2022-09-20T02:17:28.289Z,4.37
2022-09-20T02:20:02.984Z,4.80
2022-09-20T02:22:40.972Z,4.50
2022-09-20T02:25:19.171Z,4.87
2022-09-20T02:28:03.187Z,3.87
2022-09-20T02:30:36.749Z,6.00
2022-09-20T02:33:14.025Z,3.63
2022-09-20T02:35:54.073Z,4.00
2022-09-20T02:38:33.430Z,4.00
2022-09-20T02:41:15.361Z,4.63
2022-09-20T02:43:48.612Z,3.80
2022-09-20T02:46:19.871Z,4.57
2022-09-20T02:48:56.420Z,4.10
2022-09-20T02:51:30.352Z,4.33
2022-09-20T02:54:03.703Z,4.87
2022-09-20T02:56:39.492Z,4.77
2022-09-20T02:59:19.069Z,4.73
2022-09-20T03:01:53.915Z,4.17
2022-09-20T03:04:38.160Z,4.70
2022-09-20T03:07:11.201Z,4.37
2022-09-20T03:09:43.002Z,4.50
2022-09-20T03:12:16.813Z,4.73
2022-09-20T03:14:55.808Z,4.40
2022-09-20T03:17:33.513Z,4.50
2022-09-20T03:20:07.333Z,4.33
2022-09-20T03:22:40.385Z,4.80
2022-09-20T03:25:18.074Z,4.37
2022-09-20T03:27:50.812Z,4.30
2022-09-20T03:30:29.800Z,5.37
2022-09-20T03:33:07.875Z,4.50
2022-09-20T03:35:45.036Z,4.60
2022-09-20T03:38:20.754Z,4.53
2022-09-20T03:41:03.813Z,4.57
2022-09-20T03:43:41.770Z,4.57
2022-09-20T03:46:17.635Z,4.40
2022-09-20T03:48:54.306Z,4.60
2022-09-20T03:51:32.912Z,4.60
2022-09-20T03:54:17.864Z,4.70
2022-09-20T03:56:53.803Z,5.00
2022-09-20T03:59:28.630Z,4.67
2022-09-20T04:02:07.140Z,4.73
2022-09-20T04:04:40.284Z,4.70
2022-09-20T04:07:16.853Z,5.20
2022-09-20T04:10:06.386Z,5.10
2022-09-20T04:12:40.915Z,4.43
2022-09-20T04:15:18.011Z,5.63
2022-09-20T04:17:51.382Z,5.20
2022-09-20T04:20:24.011Z,4.60
2022-09-20T04:22:55.194Z,5.10
2022-09-20T04:25:27.737Z,4.93
2022-09-20T04:27:59.178Z,5.30
2022-09-20T04:30:30.311Z,4.47
2022-09-20T04:33:02.662Z,4.97
2022-09-20T04:35:54.936Z,4.43
2022-09-20T04:38:24.987Z,4.53
2022-09-20T04:41:01.956Z,4.53
2022-09-20T04:43:52.315Z,4.60
2022-09-20T04:46:56.086Z,4.77
2022-09-20T04:50:06.240Z,4.53
2022-09-20T04:52:40.986Z,4.67
2022-09-20T04:55:47.168Z,4.93
2022-09-20T04:58:30.340Z,4.30
2022-09-20T05:01:11.108Z,5.07
2022-09-20T05:03:50.672Z,4.60
2022-09-20T05:06:43.301Z,4.50
2022-09-20T05:09:30.090Z,5.07
2022-09-20T05:12:18.424Z,4.67
2022-09-20T05:14:55.422Z,4.87
2022-09-20T05:17:26.868Z,4.77
2022-09-20T05:20:36.211Z,4.80
2022-09-20T05:23:24.986Z,5.63
2022-09-20T05:26:08.433Z,5.00
2022-09-20T05:28:40.907Z,4.90
2022-09-20T05:31:14.515Z,5.77
2022-09-20T05:33:49.295Z,5.07
2022-09-20T05:36:32.407Z,6.00
2022-09-20T05:39:14.086Z,5.13
2022-09-20T05:41:48.172Z,5.60
2022-09-20T05:44:31.947Z,5.30
2022-09-20T05:47:06.628Z,5.20
2022-09-20T05:49:41.118Z,6.30
2022-09-20T05:52:22.470Z,6.53
2022-09-20T05:55:01.815Z,6.10
2022-09-20T05:57:34.638Z,6.97
2022-09-20T06:00:07.590Z,5.63
2022-09-20T06:02:42.612Z,5.80
2022-09-20T06:05:16.741Z,6.83
2022-09-20T06:08:04.765Z,5.97
2022-09-20T06:10:47.239Z,5.60
2022-09-20T06:13:31.456Z,6.40
2022-09-20T06:16:02.181Z,6.10
2022-09-20T06:18:35.566Z,6.20
2022-09-20T06:21:10.773Z,6.13
2022-09-20T06:23:39.286Z,6.67
2022-09-20T06:26:09.674Z,5.70
2022-09-20T06:28:41.300Z,7.17
2022-09-20T06:31:12.052Z,6.53
2022-09-20T06:33:45.408Z,6.03
2022-09-20T06:36:48.739Z,6.63
2022-09-20T06:39:39.012Z,6.97
2022-09-20T06:42:09.059Z,5.63
2022-09-20T06:44:41.324Z,6.90
2022-09-20T06:47:11.931Z,6.37
2022-09-20T06:49:42.363Z,6.67
2022-09-20T06:52:15.100Z,6.30
2022-09-20T06:54:45.904Z,6.20
2022-09-20T06:57:16.195Z,5.90
2022-09-20T06:59:44.207Z,6.87
2022-09-20T07:02:13.584Z,6.27
2022-09-20T07:04:41.941Z,7.80
2022-09-20T07:07:15.978Z,6.70
2022-09-20T07:09:44.276Z,6.83
2022-09-20T07:12:12.588Z,6.70
2022-09-20T07:14:41.674Z,6.70
2022-09-20T07:17:09.995Z,6.97
2022-09-20T07:19:39.367Z,7.37
2022-09-20T07:22:07.671Z,7.40
2022-09-20T07:24:36.441Z,7.77
2022-09-20T07:27:06.522Z,7.17
2022-09-20T07:29:35.370Z,7.47
2022-09-20T07:32:03.716Z,8.10
2022-09-20T07:34:32.123Z,8.53
2022-09-20T07:37:01.614Z,7.40
2022-09-20T07:39:30.444Z,6.63
2022-09-20T07:41:58.742Z,7.33
2022-09-20T07:44:27.952Z,6.67
2022-09-20T07:46:57.516Z,7.60
2022-09-20T07:49:26.191Z,8.03
2022-09-20T07:51:55.143Z,8.67
2022-09-20T07:54:24.482Z,7.80
2022-09-20T07:56:52.481Z,7.13
2022-09-20T07:59:20.606Z,9.03
2022-09-20T08:01:48.954Z,7.23
2022-09-20T08:04:17.214Z,8.00
2022-09-20T08:06:46.485Z,7.63
2022-09-20T08:09:15.230Z,7.20
2022-09-20T08:11:45.428Z,7.00
2022-09-20T08:14:16.240Z,7.50
2022-09-20T08:16:45.976Z,6.17
2022-09-20T08:19:18.095Z,7.63
2022-09-20T08:21:46.462Z,6.83
2022-09-20T08:24:16.350Z,6.83
2022-09-20T08:26:46.047Z,6.23
2022-09-20T08:29:15.249Z,6.50
2022-09-20T08:31:43.716Z,7.17
2022-09-20T08:34:14.904Z,7.67
2022-09-20T08:36:47.043Z,7.90
2022-09-20T08:42:14.209Z,6.93
2022-09-20T08:44:46.884Z,7.07
2022-09-20T08:47:20.874Z,8.03
2022-09-20T08:49:50.136Z,7.67
2022-09-20T08:52:21.657Z,7.07
2022-09-20T08:54:49.677Z,7.37
2022-09-20T08:57:21.591Z,7.70
2022-09-20T08:59:50.377Z,7.20
2022-09-20T09:02:21.591Z,7.93
2022-09-20T09:04:52.918Z,8.57
2022-09-20T09:07:23.182Z,7.83
2022-09-20T09:09:53.917Z,8.02
2022-09-20T09:12:27.092Z,8.13
2022-09-20T09:15:00.380Z,8.75
2022-09-20T09:17:30.108Z,8.85
2022-09-20T09:19:59.700Z,9.60
2022-09-20T09:22:40.171Z,9.90
2022-09-20T09:25:23.332Z,9.82
2022-09-20T09:27:55.159Z,10.95
2022-09-20T09:30:26.304Z,10.45
2022-09-20T09:33:14.825Z,9.55
2022-09-20T09:35:43.110Z,10.00
2022-09-20T09:38:19.531Z,9.38
2022-09-20T09:40:52.383Z,9.50
2022-09-20T09:43:29.146Z,7.60
2022-09-20T09:45:58.475Z,8.23
2022-09-20T09:48:30.628Z,7.68
2022-09-20T09:51:10.582Z,8.38
2022-09-20T09:53:39.404Z,7.40
2022-09-20T09:56:27.252Z,6.53
2022-09-20T09:59:12.635Z,5.57
2022-09-20T10:01:51.720Z,6.80
2022-09-20T10:04:29.684Z,7.55
2022-09-20T10:07:05.651Z,6.03
2022-09-20T10:10:02.454Z,5.63
2022-09-20T10:12:44.072Z,5.35
2022-09-20T10:15:26.844Z,5.70
2022-09-20T10:18:20.535Z,5.80
2022-09-20T10:20:59.821Z,5.63
2022-09-20T10:26:49.147Z,5.63
2022-09-20T10:29:26.955Z,5.00
2022-09-20T10:32:07.083Z,5.15
2022-09-20T10:35:04.924Z,4.73
2022-09-20T10:37:49.173Z,4.88
2022-09-20T10:40:48.301Z,5.55
2022-09-20T10:43:26.741Z,5.55
2022-09-20T10:46:30.644Z,5.63
2022-09-20T10:49:06.217Z,5.60
2022-09-20T10:51:44.515Z,6.32
2022-09-20T10:54:26.646Z,5.85
2022-09-20T10:57:04.247Z,5.88
2022-09-20T10:59:42.629Z,6.40
2022-09-20T11:02:38.998Z,5.50
2022-09-20T11:05:30.876Z,5.93
2022-09-20T11:08:09.044Z,6.25
2022-09-20T11:10:42.403Z,6.57
2022-09-20T11:13:21.646Z,7.20
2022-09-20T11:15:55.955Z,7.40
2022-09-20T11:18:27.068Z,6.97
2022-09-20T11:21:01.463Z,7.22
2022-09-20T11:23:38.496Z,7.32
2022-09-20T11:26:12.909Z,6.70
2022-09-20T11:28:44.147Z,6.53
2022-09-20T11:31:19.179Z,6.18
2022-09-20T11:33:53.147Z,6.68
2022-09-20T11:36:28.216Z,6.30
2022-09-20T11:39:03.476Z,6.45
2022-09-20T11:41:33.174Z,6.82
2022-09-20T11:44:06.939Z,5.75
2022-09-20T11:46:39.749Z,6.07
2022-09-20T11:49:15.805Z,5.68
2022-09-20T11:52:17.386Z,6.43
2022-09-20T11:55:14.908Z,5.65
2022-09-20T11:57:43.375Z,5.85
2022-09-20T12:00:12.759Z,6.55
2022-09-20T12:02:49.590Z,6.35
2022-09-20T12:05:33.636Z,7.03
2022-09-20T12:08:04.250Z,7.25
2022-09-20T12:10:37.483Z,7.10
2022-09-20T12:13:08.079Z,6.38
2022-09-20T12:15:39.162Z,6.80
2022-09-20T12:18:33.099Z,6.78
2022-09-20T12:21:04.955Z,9.30
2022-09-20T12:24:08.858Z,9.20
2022-09-20T12:26:44.259Z,7.35
2022-09-20T12:29:53.324Z,6.28
2022-09-20T12:32:57.297Z,6.05
2022-09-20T12:36:18.396Z,6.32
2022-09-20T12:38:57.824Z,5.97
2022-09-20T12:41:28.977Z,4.82
2022-09-20T12:44:05.961Z,5.13
2022-09-20T12:46:52.034Z,6.05
2022-09-20T12:49:58.560Z,5.13
2022-09-20T12:53:06.604Z,6.30
2022-09-20T12:55:45.747Z,5.78
2022-09-20T12:58:25.156Z,5.78
2022-09-20T13:01:34.910Z,6.65
2022-09-20T13:04:41.242Z,5.75
2022-09-20T13:07:44.061Z,5.53
2022-09-20T13:10:25.057Z,5.25
2022-09-20T13:12:59.211Z,6.40
2022-09-20T13:15:28.237Z,5.88
2022-09-20T13:18:02.300Z,5.78
2022-09-20T13:20:34.822Z,5.72
2022-09-20T13:23:06.225Z,5.80
2022-09-20T13:25:35.080Z,6.43
2022-09-20T13:28:10.033Z,5.57
2022-09-20T13:30:41.789Z,6.03
2022-09-20T13:33:22.179Z,6.07
2022-09-20T13:35:54.464Z,6.22
2022-09-20T13:38:25.413Z,6.22
2022-09-20T13:40:54.216Z,6.55
2022-09-20T13:43:30.753Z,6.57
2022-09-20T13:45:59.841Z,5.15
2022-09-20T13:48:30.919Z,5.72
2022-09-20T13:50:59.391Z,4.80
2022-09-20T13:53:41.444Z,5.03
2022-09-20T13:56:12.757Z,5.53
2022-09-20T13:58:41.094Z,6.18
2022-09-20T14:01:24.011Z,6.88
2022-09-20T14:03:54.603Z,6.00
2022-09-20T14:06:28.138Z,6.25
2022-09-20T14:08:56.580Z,6.03
2022-09-20T14:11:27.126Z,5.85
2022-09-20T14:13:57.043Z,5.90
2022-09-20T14:16:31.014Z,7.03
2022-09-20T14:19:01.186Z,6.40
2022-09-20T14:21:33.191Z,5.75
2022-09-20T14:24:04.126Z,7.13
2022-09-20T14:26:34.743Z,7.10
2022-09-20T14:29:30.760Z,6.00
2022-09-20T14:32:00.956Z,6.13
2022-09-20T14:34:30.528Z,6.13
2022-09-20T14:37:06.613Z,6.55
2022-09-20T14:39:39.958Z,5.70
2022-09-20T14:42:21.766Z,6.22
2022-09-20T14:44:53.058Z,6.05
2022-09-20T14:47:28.497Z,5.53
2022-09-20T14:49:59.153Z,5.57
2022-09-20T14:52:38.440Z,5.10
2022-09-20T14:55:21.456Z,6.38
2022-09-20T14:57:50.041Z,6.72
2022-09-20T15:00:20.668Z,6.35
2022-09-20T15:02:49.303Z,6.00
2022-09-20T15:05:26.184Z,5.30
2022-09-20T15:07:54.946Z,5.55
2022-09-20T15:10:23.516Z,5.63
2022-09-20T15:12:51.927Z,5.72
2022-09-20T15:15:20.202Z,5.20
2022-09-20T15:17:48.925Z,4.95
2022-09-20T15:20:24.185Z,5.45
2022-09-20T15:22:52.835Z,4.53
2022-09-20T15:25:22.239Z,5.55
2022-09-20T15:27:51.829Z,5.25
2022-09-20T15:30:21.006Z,5.40
2022-09-20T15:32:49.594Z,4.47
2022-09-20T15:35:18.010Z,4.63
2022-09-20T15:37:47.687Z,4.78
2022-09-20T15:40:15.873Z,5.32
2022-09-20T15:42:45.928Z,4.43
2022-09-20T15:45:14.783Z,5.50
2022-09-20T15:47:43.175Z,5.75
2022-09-20T15:50:11.788Z,5.30
2022-09-20T15:52:41.609Z,5.03
2022-09-20T15:55:12.068Z,5.38
2022-09-20T15:57:42.010Z,5.90
2022-09-20T16:00:10.960Z,5.75
2022-09-20T16:02:39.410Z,5.75
2022-09-20T16:05:09.995Z,5.75
2022-09-20T16:07:38.339Z,5.40
2022-09-20T16:10:07.196Z,5.68
2022-09-20T16:12:36.559Z,6.53
2022-09-20T16:15:04.939Z,5.18
2022-09-20T16:17:50.724Z,5.60
2022-09-20T16:20:19.016Z,5.20
2022-09-20T16:22:47.393Z,4.72
2022-09-20T16:25:15.682Z,4.72
2022-09-20T16:27:45.060Z,5.65
2022-09-20T16:30:14.101Z,5.68
2022-09-20T16:32:42.978Z,4.82
2022-09-20T16:35:11.410Z,5.25
2022-09-20T16:37:39.850Z,5.03
2022-09-20T16:40:10.738Z,5.25
2022-09-20T16:42:39.070Z,4.93
2022-09-20T16:45:09.312Z,5.47
2022-09-20T16:47:40.974Z,5.80
2022-09-20T16:50:11.717Z,4.70
2022-09-20T16:52:40.028Z,5.13
2022-09-20T16:55:11.004Z,4.82
2022-09-20T16:57:39.330Z,5.30
2022-09-20T17:00:11.666Z,5.45
2022-09-20T17:02:39.823Z,5.35
2022-09-20T17:05:09.322Z,5.57
2022-09-20T17:07:38.161Z,5.55
2022-09-20T17:10:06.938Z,5.90
2022-09-20T17:12:41.410Z,5.60
2022-09-20T17:15:13.238Z,5.83
2022-09-20T17:17:42.231Z,6.32
2022-09-20T17:20:10.546Z,6.40
2022-09-20T17:22:38.539Z,7.72
2022-09-20T17:25:07.623Z,8.93
2022-09-20T17:27:39.609Z,7.80
2022-09-20T17:30:10.759Z,6.23
2022-09-20T17:32:38.751Z,6.07
2022-09-20T17:35:07.802Z,5.93
2022-09-20T17:37:36.160Z,6.30
2022-09-20T17:40:04.584Z,6.30
2022-09-20T17:42:34.629Z,5.90
2022-09-20T17:45:03.043Z,5.70
2022-09-20T17:47:32.924Z,6.43
2022-09-20T17:50:01.313Z,5.77
2022-09-20T17:52:29.826Z,5.37
2022-09-20T17:54:58.123Z,5.17
2022-09-20T17:57:26.428Z,5.70
2022-09-20T17:59:54.738Z,5.20
2022-09-20T18:02:23.120Z,5.60
2022-09-20T18:04:53.795Z,5.73
2022-09-20T18:07:22.123Z,6.17
2022-09-20T18:09:50.684Z,6.37
2022-09-20T18:12:21.374Z,6.07
2022-09-20T18:14:49.950Z,6.80
2022-09-20T18:17:18.003Z,6.13
2022-09-20T18:19:46.381Z,6.17
2022-09-20T18:22:16.027Z,5.93
2022-09-20T18:24:44.362Z,6.77
2022-09-20T18:27:13.601Z,7.13
2022-09-20T18:29:41.962Z,6.23
2022-09-20T18:32:10.010Z,12.00
2022-09-20T18:34:38.499Z,8.77
2022-09-20T18:37:13.791Z,9.93
2022-09-20T18:39:44.404Z,7.73
2022-09-20T18:42:12.688Z,7.70
2022-09-20T18:44:43.949Z,7.40
2022-09-20T18:47:12.266Z,5.77
2022-09-20T18:49:40.594Z,6.63
2022-09-20T18:52:10.795Z,7.43
2022-09-20T18:54:40.804Z,6.80
2022-09-20T18:57:11.803Z,6.47
2022-09-20T18:59:40.302Z,6.77
2022-09-20T19:02:28.960Z,5.93
2022-09-20T19:05:22.674Z,5.20
2022-09-20T19:08:05.209Z,5.23
2022-09-20T19:10:42.736Z,6.43
2022-09-20T19:13:22.765Z,5.27
2022-09-20T19:16:18.538Z,5.07
2022-09-20T19:19:08.894Z,4.73
2022-09-20T19:21:46.831Z,4.87
2022-09-20T19:24:28.136Z,5.67
2022-09-20T19:26:56.441Z,5.20
2022-09-20T19:29:27.520Z,5.83
2022-09-20T19:31:57.523Z,5.70
2022-09-20T19:34:28.155Z,5.97
2022-09-20T19:37:08.181Z,5.53
2022-09-20T19:39:48.170Z,6.33
2022-09-20T19:42:26.669Z,6.00
2022-09-20T19:45:04.277Z,6.43
2022-09-20T19:47:44.500Z,5.67
2022-09-20T19:50:17.224Z,5.90
2022-09-20T19:52:46.316Z,6.80
2022-09-20T19:55:15.737Z,5.90
2022-09-20T19:57:47.063Z,5.80
2022-09-20T20:00:19.278Z,6.23
2022-09-20T20:02:48.264Z,5.60
2022-09-20T20:05:17.758Z,5.97
2022-09-20T20:07:51.153Z,5.23
2022-09-20T20:10:24.965Z,5.83
2022-09-20T20:12:57.144Z,5.70
2022-09-20T20:15:44.640Z,6.00
2022-09-20T20:18:23.555Z,5.57
2022-09-20T20:20:54.511Z,4.93
2022-09-20T20:24:02.651Z,5.47
2022-09-20T20:26:31.340Z,5.17
2022-09-20T20:29:00.213Z,4.77
2022-09-20T20:31:30.338Z,4.63
2022-09-20T20:33:59.012Z,4.97
2022-09-20T20:36:27.305Z,5.03
2022-09-20T20:38:55.706Z,4.67
2022-09-20T20:41:24.243Z,4.67
2022-09-20T20:43:57.033Z,5.03
2022-09-20T20:46:25.830Z,4.63
2022-09-20T20:48:55.310Z,4.63
2022-09-20T20:51:24.716Z,4.70
2022-09-20T20:53:54.429Z,4.50
2022-09-20T20:56:25.740Z,4.63
2022-09-20T20:58:54.451Z,4.40
2022-09-20T21:01:23.742Z,4.40
2022-09-20T21:03:53.200Z,4.27
2022-09-20T21:06:25.075Z,5.10
2022-09-20T21:08:53.308Z,4.43
2022-09-20T21:11:23.659Z,4.37
2022-09-20T21:13:52.177Z,4.50
2022-09-20T21:16:22.503Z,4.90
2022-09-20T21:18:51.671Z,4.53
2022-09-20T21:21:23.277Z,4.47
2022-09-20T21:23:53.474Z,5.50
2022-09-20T21:26:22.505Z,5.03
2022-09-20T21:28:52.191Z,4.90
2022-09-20T21:31:21.000Z,4.77
2022-09-20T21:33:49.526Z,3.97
2022-09-20T21:36:19.349Z,4.57
2022-09-20T21:38:49.225Z,4.33
2022-09-20T21:41:18.424Z,5.00
2022-09-20T21:43:48.957Z,4.60
2022-09-20T21:46:18.904Z,5.37
2022-09-20T21:48:47.983Z,5.93
2022-09-20T21:51:18.207Z,6.03
2022-09-20T21:53:46.546Z,6.43
2022-09-20T21:56:17.577Z,7.37
2022-09-20T21:58:46.391Z,5.87
2022-09-20T22:01:16.030Z,5.90
2022-09-20T22:03:45.431Z,5.73
2022-09-20T22:06:15.506Z,4.97
2022-09-20T22:08:45.159Z,4.80
2022-09-20T22:11:14.989Z,4.90
2022-09-20T22:13:45.432Z,4.77
2022-09-20T22:16:14.641Z,6.40
2022-09-20T22:18:43.595Z,4.30
2022-09-20T22:21:13.305Z,4.87
2022-09-20T22:23:42.071Z,4.37
2022-09-20T22:26:12.574Z,4.40
2022-09-20T22:28:41.142Z,4.33
2022-09-20T22:31:11.985Z,4.30
2022-09-20T22:33:42.152Z,4.17
2022-09-20T22:36:11.138Z,4.17
2022-09-20T22:38:39.557Z,4.63
2022-09-20T22:41:07.939Z,4.80
2022-09-20T22:43:36.722Z,5.20
2022-09-20T22:46:05.789Z,4.53
2022-09-20T22:48:35.887Z,4.93
2022-09-20T22:51:04.919Z,4.80
2022-09-20T22:53:34.383Z,4.20
2022-09-20T22:56:06.933Z,4.03
2022-09-20T22:58:35.996Z,3.80
2022-09-20T23:01:08.504Z,3.97
2022-09-20T23:03:38.675Z,3.70
2022-09-20T23:06:12.963Z,3.40
2022-09-20T23:08:41.338Z,3.67
2022-09-20T23:11:09.772Z,3.57
2022-09-20T23:13:38.399Z,3.60
2022-09-20T23:16:12.372Z,3.77
2022-09-20T23:18:42.135Z,3.60
2022-09-20T23:21:10.631Z,3.87
2022-09-20T23:23:39.892Z,3.57
2022-09-20T23:26:09.231Z,3.47
2022-09-20T23:28:37.643Z,3.77
2022-09-20T23:31:06.690Z,3.60
2022-09-20T23:33:35.105Z,3.53
2022-09-20T23:36:08.341Z,3.67
2022-09-20T23:38:36.817Z,3.30
2022-09-20T23:41:06.746Z,3.60
2022-09-20T23:43:36.626Z,3.40
2022-09-20T23:46:05.547Z,4.00
2022-09-20T23:48:36.099Z,3.70
2022-09-20T23:51:06.353Z,3.57
2022-09-20T23:53:34.646Z,3.37
2022-09-20T23:56:03.342Z,4.00
2022-09-20T23:58:31.722Z,3.90
